createdAt,value
2023-04-26T00:00:21.990Z,77.24
2023-04-26T00:05:27.133Z,77.69
2023-04-26T00:10:30.179Z,79.54
2023-04-26T00:15:33.228Z,78.87
2023-04-26T00:20:37.440Z,79.31
2023-04-26T00:25:40.489Z,78.77
2023-04-26T00:30:47.740Z,78.03
2023-04-26T00:35:52.042Z,78.58
2023-04-26T00:40:54.923Z,79.05
2023-04-26T00:45:58.808Z,78.88
2023-04-26T00:51:03.616Z,78.16
2023-04-26T00:56:08.257Z,79.17
2023-04-26T01:01:11.274Z,77.94
2023-04-26T01:06:15.616Z,79.11
2023-04-26T01:11:20.928Z,79.71
2023-04-26T01:16:25.104Z,79.67
2023-04-26T01:21:29.456Z,80.12
2023-04-26T01:26:33.891Z,79.19
2023-04-26T01:31:36.975Z,79.45
2023-04-26T01:36:40.013Z,80.00
2023-04-26T01:41:44.322Z,80.26
2023-04-26T01:46:47.394Z,82.42
2023-04-26T01:51:50.368Z,82.32
2023-04-26T01:56:54.671Z,82.25
2023-04-26T02:01:57.761Z,81.79
2023-04-26T02:07:00.682Z,81.94
2023-04-26T02:12:04.948Z,81.93
2023-04-26T02:17:08.988Z,82.94
2023-04-26T02:22:11.855Z,82.53
2023-04-26T02:27:19.213Z,82.79
2023-04-26T02:32:22.144Z,84.08
2023-04-26T02:37:25.139Z,83.45
2023-04-26T02:42:29.643Z,83.27
2023-04-26T02:47:32.825Z,83.23
2023-04-26T02:52:36.115Z,83.92
2023-04-26T02:57:41.709Z,83.55
2023-04-26T03:02:44.767Z,83.95
2023-04-26T03:07:47.774Z,84.53
2023-04-26T03:12:52.065Z,84.97
2023-04-26T03:17:55.052Z,83.96
2023-04-26T03:22:58.263Z,82.79
2023-04-26T03:28:03.947Z,82.54
2023-04-26T03:33:07.096Z,82.83
2023-04-26T03:38:10.071Z,82.56
2023-04-26T03:43:14.488Z,83.28
2023-04-26T03:48:17.804Z,82.40
2023-04-26T03:53:20.837Z,81.76
2023-04-26T03:58:26.113Z,81.36
2023-04-26T04:03:30.626Z,82.41
2023-04-26T04:08:33.883Z,81.03
2023-04-26T04:13:38.189Z,81.72
2023-04-26T04:18:41.159Z,81.38
2023-04-26T04:23:44.667Z,80.56
2023-04-26T04:28:52.095Z,78.06
2023-04-26T04:33:56.051Z,74.35
2023-04-26T04:38:59.289Z,69.08
2023-04-26T04:44:04.345Z,66.22
2023-04-26T04:49:09.467Z,66.34
2023-04-26T04:54:13.210Z,66.70
2023-04-26T04:59:17.666Z,66.07
2023-04-26T05:04:21.844Z,64.38
2023-04-26T05:09:25.261Z,62.16
2023-04-26T05:14:31.248Z,64.07
2023-04-26T05:19:34.536Z,66.08
2023-04-26T05:24:37.860Z,65.88
2023-04-26T05:29:42.599Z,65.24
2023-04-26T05:35:01.527Z,62.93
2023-04-26T05:40:08.006Z,61.93
2023-04-26T05:45:13.365Z,61.23
2023-04-26T05:50:17.327Z,61.15
2023-04-26T05:55:21.611Z,63.48
2023-04-26T06:00:27.209Z,60.83
2023-04-26T06:05:31.426Z,63.77
2023-04-26T06:10:37.392Z,62.75
2023-04-26T06:15:41.718Z,65.74
2023-04-26T06:20:44.602Z,67.52
2023-04-26T06:25:47.689Z,64.04
2023-04-26T06:30:52.008Z,63.12
2023-04-26T06:35:55.069Z,65.49
2023-04-26T06:40:58.137Z,65.06
2023-04-26T06:46:02.792Z,63.81
2023-04-26T06:51:08.913Z,65.97
2023-04-26T06:56:12.022Z,63.21
2023-04-26T07:01:16.386Z,62.71
2023-04-26T07:06:19.334Z,67.24
2023-04-26T07:11:24.588Z,64.66
2023-04-26T07:16:30.354Z,61.86
2023-04-26T07:21:33.717Z,59.77
2023-04-26T07:26:37.463Z,64.67
2023-04-26T07:31:41.803Z,61.59
2023-04-26T07:36:44.715Z,53.97
2023-04-26T07:41:47.622Z,57.74
2023-04-26T07:46:52.129Z,57.20
2023-04-26T07:51:56.437Z,55.77
2023-04-26T07:56:59.421Z,57.32
2023-04-26T08:02:03.720Z,55.27
2023-04-26T08:07:07.252Z,59.31
2023-04-26T08:12:10.430Z,57.41
2023-04-26T08:17:14.880Z,55.18
2023-04-26T08:22:18.010Z,51.75
2023-04-26T08:27:21.102Z,51.93
2023-04-26T08:32:25.432Z,57.93
2023-04-26T08:37:29.661Z,56.26
2023-04-26T08:42:34.242Z,57.39
2023-04-26T08:47:44.320Z,56.06
2023-04-26T08:52:49.659Z,50.65
2023-04-26T08:57:52.614Z,49.58
2023-04-26T09:02:56.967Z,47.78
2023-04-26T09:08:03.506Z,49.01
2023-04-26T09:13:06.388Z,49.16
2023-04-26T09:18:21.701Z,49.35
2023-04-26T09:23:24.605Z,46.64
2023-04-26T09:28:27.479Z,48.93
2023-04-26T09:33:31.719Z,50.19
2023-04-26T09:38:43.700Z,49.06
2023-04-26T09:43:46.629Z,45.91
2023-04-26T09:49:02.129Z,47.09
2023-04-26T09:54:05.119Z,46.69
2023-04-26T09:59:08.986Z,52.94
2023-04-26T10:04:13.435Z,50.82
2023-04-26T10:09:16.527Z,49.50
2023-04-26T10:14:19.520Z,46.76
2023-04-26T10:19:24.418Z,47.82
2023-04-26T10:24:27.364Z,47.88
2023-04-26T10:30:12.261Z,48.12
2023-04-26T10:35:17.820Z,47.36
2023-04-26T10:40:25.240Z,47.68
2023-04-26T10:45:30.109Z,47.33
2023-04-26T10:50:34.434Z,45.47
2023-04-26T10:55:41.740Z,46.81
2023-04-26T11:01:05.422Z,45.73
2023-04-26T11:06:13.790Z,46.60
2023-04-26T11:11:19.588Z,45.59
2023-04-26T11:16:26.658Z,44.56
2023-04-26T11:21:32.697Z,42.35
2023-04-26T11:26:36.614Z,42.57
2023-04-26T11:31:39.532Z,46.29
2023-04-26T11:36:46.407Z,43.28
2023-04-26T11:41:49.553Z,42.10
2023-04-26T11:46:53.066Z,42.81
2023-04-26T11:51:57.789Z,46.72
2023-04-26T11:57:01.133Z,46.46
2023-04-26T12:02:07.370Z,48.37
2023-04-26T12:07:11.780Z,49.93
2023-04-26T12:12:14.676Z,47.25
2023-04-26T12:17:17.643Z,47.54
2023-04-26T12:22:23.056Z,44.44
2023-04-26T12:27:26.248Z,45.32
2023-04-26T12:32:29.452Z,45.79
2023-04-26T12:37:33.787Z,47.37
2023-04-26T12:42:36.831Z,45.26
2023-04-26T12:47:39.838Z,47.71
2023-04-26T12:52:45.502Z,46.62
2023-04-26T12:57:48.600Z,47.29
2023-04-26T13:02:51.909Z,46.67
2023-04-26T13:07:56.527Z,45.55
2023-04-26T13:12:59.432Z,47.63
2023-04-26T13:18:02.441Z,46.65
2023-04-26T13:23:06.884Z,44.56
2023-04-26T13:28:10.157Z,46.62
2023-04-26T13:33:13.384Z,44.08
2023-04-26T13:38:18.080Z,44.83
2023-04-26T13:43:21.119Z,45.48
2023-04-26T13:48:24.470Z,44.56
2023-04-26T13:53:31.974Z,43.50
2023-04-26T13:58:34.950Z,44.00
2023-04-26T14:03:38.015Z,43.80
2023-04-26T14:08:42.425Z,44.87
2023-04-26T14:13:45.505Z,45.25
2023-04-26T14:18:48.668Z,45.94
2023-04-26T14:23:52.982Z,46.58
2023-04-26T14:28:55.843Z,46.61
2023-04-26T14:34:00.184Z,45.59
2023-04-26T14:39:04.523Z,46.38
2023-04-26T14:44:07.632Z,46.51
2023-04-26T14:49:10.603Z,46.95
2023-04-26T14:54:15.447Z,46.96
2023-04-26T14:59:18.549Z,47.14
2023-04-26T15:04:21.673Z,47.28
2023-04-26T15:09:27.494Z,48.13
2023-04-26T15:14:32.395Z,48.11
2023-04-26T15:19:35.269Z,47.81
2023-04-26T15:24:39.642Z,47.38
2023-04-26T15:29:42.594Z,47.14
2023-04-26T15:34:45.986Z,47.35
2023-04-26T15:39:50.272Z,47.77
2023-04-26T15:44:53.120Z,48.93
2023-04-26T15:49:56.160Z,48.74
2023-04-26T15:55:00.641Z,47.91
2023-04-26T16:00:05.898Z,49.15
2023-04-26T16:05:11.331Z,50.28
2023-04-26T16:10:16.333Z,49.52
2023-04-26T16:15:19.637Z,49.16
2023-04-26T16:20:22.764Z,48.92
2023-04-26T16:25:27.066Z,48.41
2023-04-26T16:30:30.030Z,48.80
2023-04-26T16:35:32.951Z,48.01
2023-04-26T16:40:37.200Z,49.50
2023-04-26T16:45:41.351Z,49.20
2023-04-26T16:50:44.270Z,47.69
2023-04-26T16:55:48.754Z,48.48
2023-04-26T17:00:52.125Z,48.43
2023-04-26T17:05:55.059Z,48.92
2023-04-26T17:10:59.267Z,49.06
2023-04-26T17:16:02.218Z,50.35
2023-04-26T17:21:05.827Z,50.94
2023-04-26T17:26:10.138Z,49.55
2023-04-26T17:31:13.084Z,51.03
2023-04-26T17:36:16.046Z,51.77
2023-04-26T17:41:20.759Z,50.77
2023-04-26T17:46:23.838Z,49.96
2023-04-26T17:51:26.923Z,51.44
2023-04-26T17:56:31.215Z,51.62
2023-04-26T18:01:34.265Z,52.28
2023-04-26T18:06:37.859Z,53.15
2023-04-26T18:11:47.575Z,53.20
2023-04-26T18:16:50.612Z,53.57
2023-04-26T18:21:56.762Z,54.14
2023-04-26T18:27:01.330Z,53.98
2023-04-26T18:32:04.254Z,55.79
2023-04-26T18:37:07.231Z,55.50
2023-04-26T18:42:11.793Z,55.16
2023-04-26T18:47:14.768Z,54.80
2023-04-26T18:52:18.802Z,56.06
2023-04-26T18:57:23.142Z,55.08
2023-04-26T19:02:26.312Z,56.72
2023-04-26T19:07:29.494Z,57.23
2023-04-26T19:12:33.822Z,57.06
2023-04-26T19:17:37.341Z,58.43
2023-04-26T19:22:41.722Z,57.26
2023-04-26T19:27:45.983Z,58.56
2023-04-26T19:32:48.985Z,61.11
2023-04-26T19:37:52.062Z,58.42
2023-04-26T19:42:56.382Z,58.97
2023-04-26T19:48:00.825Z,58.27
2023-04-26T19:53:03.814Z,56.75
2023-04-26T19:58:08.679Z,57.91
2023-04-26T20:03:11.716Z,58.07
2023-04-26T20:08:14.727Z,58.13
2023-04-26T20:13:18.966Z,58.45
2023-04-26T20:18:22.710Z,58.44
2023-04-26T20:23:25.763Z,58.00
2023-04-26T20:28:30.126Z,58.54
2023-04-26T20:33:32.990Z,59.71
2023-04-26T20:38:35.972Z,59.62
2023-04-26T20:43:40.471Z,59.16
2023-04-26T20:48:43.346Z,61.43
2023-04-26T20:53:46.250Z,62.88
2023-04-26T20:58:50.536Z,63.52
2023-04-26T21:03:53.594Z,64.29
2023-04-26T21:08:56.584Z,63.61
2023-04-26T21:14:00.964Z,63.67
2023-04-26T21:19:04.590Z,63.86
2023-04-26T21:24:07.577Z,64.60
2023-04-26T21:29:12.330Z,66.98
2023-04-26T21:34:15.219Z,65.84
2023-04-26T21:39:18.294Z,65.66
2023-04-26T21:44:22.609Z,66.41
2023-04-26T21:49:26.059Z,66.27
2023-04-26T21:54:29.024Z,67.28
2023-04-26T21:59:33.467Z,67.87
2023-04-26T22:04:36.438Z,68.13
2023-04-26T22:09:39.640Z,68.71
2023-04-26T22:14:43.982Z,68.84
2023-04-26T22:19:46.926Z,69.65
2023-04-26T22:24:49.764Z,69.75
2023-04-26T22:29:53.994Z,70.42
2023-04-26T22:34:56.884Z,71.05
2023-04-26T22:39:59.794Z,70.95
2023-04-26T22:45:04.058Z,72.04
2023-04-26T22:50:08.479Z,72.38
2023-04-26T22:56:20.038Z,72.37
2023-04-26T23:01:24.346Z,77.28
2023-04-26T23:06:28.063Z,76.22
2023-04-26T23:11:46.364Z,75.51
2023-04-26T23:16:50.784Z,75.68
2023-04-26T23:21:53.944Z,76.91
2023-04-26T23:26:56.856Z,76.12
2023-04-26T23:32:01.124Z,76.43
2023-04-26T23:37:07.040Z,76.60
2023-04-26T23:42:10.868Z,77.51
2023-04-26T23:47:15.096Z,76.67
2023-04-26T23:52:17.963Z,78.09
2023-04-26T23:57:20.989Z,77.92
